createdAt,value
2023-02-21T00:00:42.752Z,7.70
2023-02-21T00:03:28.415Z,5.00
2023-02-21T00:06:14.043Z,5.30
2023-02-21T00:08:59.776Z,6.40
2023-02-21T00:11:46.107Z,6.03
2023-02-21T00:14:32.032Z,5.03
2023-02-21T00:17:18.003Z,6.47
2023-02-21T00:20:03.918Z,8.95
2023-02-21T00:22:49.671Z,4.63
2023-02-21T00:25:35.391Z,4.75
2023-02-21T00:28:20.948Z,6.25
2023-02-21T00:31:06.604Z,5.60
2023-02-21T00:33:55.318Z,8.75
2023-02-21T00:36:40.746Z,4.72
2023-02-21T00:39:26.357Z,5.65
2023-02-21T00:42:11.965Z,6.28
2023-02-21T00:44:57.705Z,5.25
2023-02-21T00:47:43.404Z,5.45
2023-02-21T00:50:28.921Z,5.63
2023-02-21T00:53:14.398Z,5.00
2023-02-21T00:56:00.044Z,5.68
2023-02-21T00:58:46.066Z,6.20
2023-02-21T01:01:31.833Z,6.85
2023-02-21T01:04:17.899Z,7.10
2023-02-21T01:07:04.914Z,5.57
2023-02-21T01:09:50.809Z,5.72
2023-02-21T01:12:36.575Z,6.22
2023-02-21T01:15:22.800Z,5.93
2023-02-21T01:18:08.380Z,6.68
2023-02-21T01:20:54.442Z,5.55
2023-02-21T01:23:40.034Z,6.75
2023-02-21T01:26:28.137Z,5.10
2023-02-21T01:29:16.804Z,6.72
2023-02-21T01:32:02.629Z,6.65
2023-02-21T01:34:48.391Z,7.38
2023-02-21T01:37:34.231Z,5.40
2023-02-21T01:40:20.469Z,10.48
2023-02-21T01:43:05.792Z,7.45
2023-02-21T01:45:51.466Z,7.80
2023-02-21T01:48:39.147Z,7.43
2023-02-21T01:51:25.273Z,10.02
2023-02-21T01:54:10.685Z,6.20
2023-02-21T01:56:56.238Z,7.25
2023-02-21T01:59:41.680Z,4.93
2023-02-21T02:02:46.250Z,5.82
2023-02-21T02:05:31.867Z,5.18
2023-02-21T02:08:17.372Z,4.93
2023-02-21T02:11:03.038Z,5.72
2023-02-21T02:14:00.879Z,4.85
2023-02-21T02:16:45.423Z,7.70
2023-02-21T02:19:36.757Z,6.93
2023-02-21T02:22:22.067Z,6.90
2023-02-21T02:25:30.492Z,5.10
2023-02-21T02:28:06.558Z,3.95
2023-02-21T02:30:52.981Z,6.75
2023-02-21T02:33:52.732Z,4.75
2023-02-21T02:36:35.451Z,5.30
2023-02-21T02:39:07.981Z,3.83
2023-02-21T02:42:07.789Z,4.10
2023-02-21T02:44:42.030Z,4.30
2023-02-21T02:47:22.612Z,5.85
2023-02-21T02:49:49.709Z,4.70
2023-02-21T02:52:17.054Z,6.18
2023-02-21T02:54:44.083Z,6.45
2023-02-21T02:57:13.053Z,6.55
2023-02-21T02:59:42.516Z,4.63
2023-02-21T03:02:15.623Z,7.70
2023-02-21T03:05:02.091Z,8.25
2023-02-21T03:07:47.807Z,4.30
2023-02-21T03:10:54.477Z,4.18
2023-02-21T03:13:38.540Z,5.10
2023-02-21T03:16:42.725Z,5.03
2023-02-21T03:19:12.522Z,4.38
2023-02-21T03:21:45.621Z,3.83
2023-02-21T03:24:14.077Z,4.28
2023-02-21T03:26:42.662Z,4.95
2023-02-21T03:29:29.887Z,4.88
2023-02-21T03:32:00.525Z,4.57
2023-02-21T03:34:27.576Z,4.65
2023-02-21T03:36:54.557Z,5.68
2023-02-21T03:39:21.632Z,6.75
2023-02-21T03:41:48.772Z,4.18
2023-02-21T03:44:15.956Z,6.00
2023-02-21T03:46:43.065Z,6.55
2023-02-21T03:49:10.147Z,4.97
2023-02-21T03:51:37.156Z,5.05
2023-02-21T03:54:04.241Z,5.50
2023-02-21T03:56:42.153Z,5.05
2023-02-21T03:59:22.615Z,4.63
2023-02-21T04:01:49.892Z,6.18
2023-02-21T04:04:17.846Z,6.97
2023-02-21T04:06:47.208Z,4.38
2023-02-21T04:09:14.198Z,8.75
2023-02-21T04:11:45.335Z,5.50
2023-02-21T04:14:12.804Z,3.97
2023-02-21T04:16:40.524Z,5.32
2023-02-21T04:19:07.571Z,6.63
2023-02-21T04:21:34.886Z,7.05
2023-02-21T04:24:01.892Z,3.72
2023-02-21T04:26:31.537Z,6.70
2023-02-21T04:28:58.916Z,4.18
2023-02-21T04:31:26.240Z,9.30
2023-02-21T04:34:05.789Z,5.50
2023-02-21T04:36:38.622Z,6.15
2023-02-21T04:39:06.089Z,7.40
2023-02-21T04:41:33.313Z,5.43
2023-02-21T04:44:00.419Z,6.18
2023-02-21T04:46:31.655Z,6.93
2023-02-21T04:48:58.596Z,6.38
2023-02-21T04:51:25.896Z,5.93
2023-02-21T04:53:53.526Z,4.95
2023-02-21T04:56:21.780Z,5.35
2023-02-21T04:58:48.738Z,6.13
2023-02-21T05:01:16.566Z,4.25
2023-02-21T05:03:43.989Z,5.30
2023-02-21T05:06:11.122Z,5.70
2023-02-21T05:08:38.302Z,4.50
2023-02-21T05:11:05.452Z,6.28
2023-02-21T05:13:32.551Z,6.50
2023-02-21T05:15:59.603Z,6.80
2023-02-21T05:18:28.848Z,5.95
2023-02-21T05:20:56.198Z,5.68
2023-02-21T05:23:34.054Z,8.45
2023-02-21T05:26:11.702Z,11.32
2023-02-21T05:31:05.864Z,6.30
2023-02-21T05:33:33.184Z,9.68
2023-02-21T05:36:00.228Z,8.10
2023-02-21T05:38:27.332Z,7.78
2023-02-21T05:40:54.607Z,8.07
2023-02-21T05:43:21.570Z,8.07
2023-02-21T05:45:48.612Z,7.90
2023-02-21T05:48:15.825Z,7.10
2023-02-21T05:50:42.910Z,8.23
2023-02-21T05:53:10.555Z,7.18
2023-02-21T05:55:37.949Z,8.02
2023-02-21T05:58:05.097Z,7.70
2023-02-21T06:00:32.288Z,6.80
2023-02-21T06:02:59.932Z,9.57
2023-02-21T06:05:26.880Z,10.43
2023-02-21T06:07:54.013Z,9.48
2023-02-21T06:10:21.111Z,8.73
2023-02-21T06:12:48.155Z,8.55
2023-02-21T06:15:15.575Z,6.80
2023-02-21T06:17:42.785Z,9.10
2023-02-21T06:20:14.901Z,8.18
2023-02-21T06:22:41.822Z,9.68
2023-02-21T06:25:08.920Z,7.32
2023-02-21T06:27:36.143Z,8.52
2023-02-21T06:30:04.167Z,7.53
2023-02-21T06:32:31.286Z,10.05
2023-02-21T06:34:58.319Z,7.97
2023-02-21T06:37:25.258Z,7.47
2023-02-21T06:39:52.524Z,10.68
2023-02-21T06:42:19.657Z,8.27
2023-02-21T06:44:47.159Z,13.90
2023-02-21T06:47:14.451Z,10.10
2023-02-21T06:49:41.515Z,10.05
2023-02-21T06:52:08.843Z,7.93
2023-02-21T06:54:35.839Z,10.15
2023-02-21T06:57:02.929Z,8.95
2023-02-21T06:59:29.977Z,12.35
2023-02-21T07:01:57.131Z,9.57
2023-02-21T07:04:24.618Z,11.75
2023-02-21T07:06:51.800Z,9.18
2023-02-21T07:09:18.848Z,10.18
2023-02-21T07:11:47.235Z,8.85
2023-02-21T07:14:14.312Z,14.13
2023-02-21T07:16:41.351Z,8.98
2023-02-21T07:19:08.338Z,9.65
2023-02-21T07:21:35.378Z,10.57
2023-02-21T07:24:02.382Z,10.77
2023-02-21T07:26:29.347Z,10.30
2023-02-21T07:28:56.510Z,11.20
2023-02-21T07:31:23.752Z,12.10
2023-02-21T07:33:50.865Z,10.02
2023-02-21T07:36:17.881Z,9.30
2023-02-21T07:38:44.869Z,9.85
2023-02-21T07:41:11.848Z,13.82
2023-02-21T07:43:39.392Z,11.15
2023-02-21T07:46:12.864Z,11.48
2023-02-21T07:48:39.902Z,10.55
2023-02-21T07:51:07.885Z,11.25
2023-02-21T07:53:34.874Z,12.60
2023-02-21T07:56:01.938Z,14.88
2023-02-21T07:58:28.877Z,10.63
2023-02-21T08:00:55.849Z,12.18
2023-02-21T08:03:23.297Z,11.95
2023-02-21T08:05:50.367Z,15.48
2023-02-21T08:08:17.544Z,16.35
2023-02-21T08:10:44.514Z,12.35
2023-02-21T08:13:11.551Z,12.00
2023-02-21T08:15:38.537Z,11.15
2023-02-21T08:18:05.632Z,8.80
2023-02-21T08:20:32.736Z,7.30
2023-02-21T08:22:59.885Z,6.72
2023-02-21T08:25:26.865Z,7.18
2023-02-21T08:27:55.435Z,7.22
2023-02-21T08:30:22.827Z,6.22
2023-02-21T08:32:51.505Z,7.22
2023-02-21T08:35:19.600Z,7.05
2023-02-21T08:37:47.125Z,5.05
2023-02-21T08:40:14.495Z,5.65
2023-02-21T08:42:41.912Z,7.95
2023-02-21T08:45:10.891Z,6.60
2023-02-21T08:47:37.934Z,5.53
2023-02-21T08:50:05.325Z,6.50
2023-02-21T08:52:32.170Z,6.80
2023-02-21T08:54:59.185Z,7.38
2023-02-21T08:57:31.113Z,5.63
2023-02-21T08:59:59.497Z,8.38
2023-02-21T09:02:26.766Z,7.78
2023-02-21T09:04:53.812Z,5.45
2023-02-21T09:07:22.758Z,6.80
2023-02-21T09:09:49.772Z,6.68
2023-02-21T09:12:16.871Z,5.45
2023-02-21T09:14:44.288Z,8.15
2023-02-21T09:17:13.126Z,7.70
2023-02-21T09:19:40.530Z,8.75
2023-02-21T09:22:08.883Z,7.47
2023-02-21T09:24:35.983Z,7.70
2023-02-21T09:27:05.721Z,7.35
2023-02-21T09:29:44.902Z,6.78
2023-02-21T09:32:13.343Z,4.72
2023-02-21T09:34:40.270Z,6.50
2023-02-21T09:37:07.310Z,5.00
2023-02-21T09:39:34.429Z,4.78
2023-02-21T09:42:01.327Z,8.00
2023-02-21T09:44:28.901Z,6.93
2023-02-21T09:47:01.755Z,7.65
2023-02-21T09:49:30.049Z,8.80
2023-02-21T09:51:57.097Z,6.13
2023-02-21T09:54:39.406Z,5.30
2023-02-21T09:57:11.763Z,6.47
2023-02-21T09:59:38.764Z,6.32
2023-02-21T10:02:14.904Z,8.43
2023-02-21T10:04:53.927Z,6.97
2023-02-21T10:07:32.307Z,6.35
2023-02-21T10:10:09.759Z,7.82
2023-02-21T10:13:14.161Z,8.68
2023-02-21T10:15:52.562Z,6.93
2023-02-21T10:18:25.529Z,6.85
2023-02-21T10:20:58.086Z,11.63
2023-02-21T10:23:38.024Z,7.38
2023-02-21T10:26:09.698Z,8.60
2023-02-21T10:28:37.170Z,9.05
2023-02-21T10:31:37.257Z,9.32
2023-02-21T10:34:05.240Z,10.00
2023-02-21T10:36:32.343Z,7.93
2023-02-21T10:39:15.646Z,11.52
2023-02-21T10:41:42.767Z,9.80
2023-02-21T10:44:27.145Z,6.45
2023-02-21T10:47:15.960Z,6.75
2023-02-21T10:50:02.938Z,7.05
2023-02-21T10:52:29.906Z,5.57
2023-02-21T10:55:01.255Z,6.70
2023-02-21T10:57:28.835Z,6.55
2023-02-21T10:59:56.177Z,7.13
2023-02-21T11:02:34.311Z,6.63
2023-02-21T11:05:18.350Z,7.90
2023-02-21T11:07:57.556Z,7.80
2023-02-21T11:10:42.422Z,6.55
2023-02-21T11:13:17.998Z,7.13
2023-02-21T11:15:45.290Z,7.22
2023-02-21T11:18:17.860Z,4.50
2023-02-21T11:20:45.293Z,7.05
2023-02-21T11:23:19.816Z,6.78
2023-02-21T11:25:46.977Z,9.10
2023-02-21T11:28:13.798Z,7.47
2023-02-21T11:30:44.608Z,5.60
2023-02-21T11:35:47.334Z,12.93
2023-02-21T11:38:35.925Z,6.80
2023-02-21T11:41:04.373Z,17.85
2023-02-21T11:43:32.274Z,8.70
2023-02-21T11:46:16.386Z,31.20
2023-02-21T11:49:12.835Z,17.27
2023-02-21T11:51:59.284Z,10.95
2023-02-21T11:54:27.565Z,6.68
2023-02-21T11:57:07.007Z,7.15
2023-02-21T11:59:42.725Z,5.72
2023-02-21T12:02:19.711Z,4.65
2023-02-21T12:05:08.456Z,9.07
2023-02-21T12:07:53.948Z,5.25
2023-02-21T12:10:58.424Z,6.68
2023-02-21T12:13:28.232Z,6.40
2023-02-21T12:16:04.537Z,5.57
2023-02-21T12:18:38.646Z,7.40
2023-02-21T12:21:12.986Z,7.40
2023-02-21T12:23:50.229Z,5.63
2023-02-21T12:26:35.071Z,6.35
2023-02-21T12:29:34.927Z,5.70
2023-02-21T12:32:23.506Z,5.47
2023-02-21T12:34:59.610Z,5.30
2023-02-21T12:37:30.057Z,5.20
2023-02-21T12:40:05.223Z,4.22
2023-02-21T12:42:50.831Z,4.72
2023-02-21T12:45:40.320Z,7.20
2023-02-21T12:48:16.839Z,6.75
2023-02-21T12:50:45.464Z,4.43
2023-02-21T12:53:16.432Z,5.47
2023-02-21T12:58:21.162Z,6.13
2023-02-21T13:00:55.351Z,6.55
2023-02-21T13:03:44.114Z,4.55
2023-02-21T13:06:39.386Z,5.70
2023-02-21T13:09:06.230Z,5.03
2023-02-21T13:11:42.854Z,4.47
2023-02-21T13:14:12.108Z,6.32
2023-02-21T13:16:39.463Z,7.63
2023-02-21T13:19:10.279Z,11.18
2023-02-21T13:21:40.231Z,6.28
2023-02-21T13:24:31.341Z,5.35
2023-02-21T13:27:37.677Z,3.67
2023-02-21T13:30:22.812Z,3.47
2023-02-21T13:32:52.283Z,5.10
2023-02-21T13:35:21.930Z,5.68
2023-02-21T13:37:50.043Z,6.68
2023-02-21T13:40:24.635Z,6.80
2023-02-21T13:43:07.245Z,4.65
2023-02-21T13:45:34.793Z,4.47
2023-02-21T13:48:01.708Z,4.05
2023-02-21T13:50:37.591Z,5.47
2023-02-21T13:53:13.255Z,4.45
2023-02-21T13:55:40.447Z,4.70
2023-02-21T13:58:27.760Z,5.28
2023-02-21T14:00:55.154Z,3.35
2023-02-21T14:03:22.307Z,6.07
2023-02-21T14:05:52.435Z,4.10
2023-02-21T14:08:34.622Z,2.63
2023-02-21T14:11:04.725Z,2.30
2023-02-21T14:13:47.830Z,3.35
2023-02-21T14:16:15.438Z,3.65
2023-02-21T14:18:45.928Z,2.75
2023-02-21T14:21:22.833Z,3.88
2023-02-21T14:23:51.495Z,4.25
2023-02-21T14:26:37.452Z,4.22
2023-02-21T14:29:07.580Z,3.15
2023-02-21T14:31:58.512Z,2.80
2023-02-21T14:34:47.123Z,3.08
2023-02-21T14:37:22.433Z,2.90
2023-02-21T14:39:51.850Z,3.50
2023-02-21T14:42:42.069Z,3.08
2023-02-21T14:45:12.288Z,2.83
2023-02-21T14:47:57.809Z,3.30
2023-02-21T14:50:47.696Z,2.60
2023-02-21T14:53:29.457Z,3.92
2023-02-21T14:56:25.308Z,4.03
2023-02-21T15:01:46.118Z,3.47
2023-02-21T15:04:32.700Z,3.95
2023-02-21T15:07:21.886Z,3.88
2023-02-21T15:10:23.972Z,2.40
2023-02-21T15:15:29.762Z,2.90
2023-02-21T15:17:59.509Z,2.83
2023-02-21T15:20:26.514Z,3.67
2023-02-21T15:22:58.229Z,2.03
2023-02-21T15:25:25.803Z,3.90
2023-02-21T15:27:54.971Z,2.92
2023-02-21T15:30:32.491Z,2.35
2023-02-21T15:33:19.281Z,4.60
2023-02-21T15:35:53.094Z,2.85
2023-02-21T15:38:35.633Z,3.47
2023-02-21T15:41:07.630Z,2.42
2023-02-21T15:43:39.725Z,3.63
2023-02-21T15:46:07.680Z,2.67
2023-02-21T15:48:35.057Z,2.92
2023-02-21T15:51:04.013Z,4.95
2023-02-21T15:53:32.433Z,4.53
2023-02-21T15:56:21.149Z,3.53
2023-02-21T15:59:22.995Z,3.08
2023-02-21T16:02:11.511Z,3.20
2023-02-21T16:04:40.183Z,3.20
2023-02-21T16:07:08.780Z,2.65
2023-02-21T16:09:35.989Z,4.75
2023-02-21T16:12:11.914Z,3.55
2023-02-21T16:14:46.887Z,4.82
2023-02-21T16:17:13.872Z,2.03
2023-02-21T16:19:52.384Z,2.15
2023-02-21T16:22:54.111Z,3.33
2023-02-21T16:25:24.975Z,3.00
2023-02-21T16:27:53.678Z,4.82
2023-02-21T16:30:28.787Z,3.50
2023-02-21T16:33:00.378Z,2.55
2023-02-21T16:35:27.360Z,2.13
2023-02-21T16:37:58.518Z,1.90
2023-02-21T16:40:35.720Z,2.17
2023-02-21T16:45:30.517Z,3.08
2023-02-21T16:48:05.256Z,2.80
2023-02-21T16:50:39.407Z,3.22
2023-02-21T16:53:06.738Z,4.00
2023-02-21T16:55:33.806Z,1.95
2023-02-21T16:58:07.776Z,2.40
2023-02-21T17:00:34.960Z,3.78
2023-02-21T17:03:02.119Z,4.13
2023-02-21T17:05:29.402Z,6.20
2023-02-21T17:07:57.586Z,9.52
2023-02-21T17:10:24.631Z,4.55
2023-02-21T17:12:51.677Z,9.05
2023-02-21T17:15:18.727Z,9.82
2023-02-21T17:17:52.784Z,10.98
2023-02-21T17:20:20.727Z,7.72
2023-02-21T17:22:48.497Z,5.07
2023-02-21T17:25:15.771Z,4.80
2023-02-21T17:27:43.034Z,6.57
2023-02-21T17:30:10.636Z,4.97
2023-02-21T17:32:38.346Z,6.13
2023-02-21T17:35:05.590Z,8.45
2023-02-21T17:37:32.552Z,4.57
2023-02-21T17:39:59.490Z,6.28
2023-02-21T17:42:26.567Z,5.93
2023-02-21T17:44:53.663Z,8.07
2023-02-21T17:47:21.889Z,10.88
2023-02-21T17:49:49.513Z,8.13
2023-02-21T17:52:16.848Z,9.55
2023-02-21T17:54:43.898Z,7.07
2023-02-21T17:57:11.156Z,7.65
2023-02-21T17:59:38.328Z,7.97
2023-02-21T18:02:05.939Z,7.82
2023-02-21T18:04:33.135Z,6.25
2023-02-21T18:07:00.164Z,5.80
2023-02-21T18:09:27.130Z,14.30
2023-02-21T18:11:54.932Z,17.20
2023-02-21T18:14:22.525Z,17.35
2023-02-21T18:16:49.743Z,14.52
2023-02-21T18:19:16.868Z,12.23
2023-02-21T18:21:45.676Z,12.98
2023-02-21T18:24:13.573Z,12.73
2023-02-21T18:26:40.705Z,16.17
2023-02-21T18:29:08.199Z,12.85
2023-02-21T18:31:35.553Z,12.57
2023-02-21T18:34:03.395Z,14.38
2023-02-21T18:36:30.648Z,17.15
2023-02-21T18:38:57.687Z,12.95
2023-02-21T18:41:24.735Z,11.68
2023-02-21T18:43:51.716Z,11.45
2023-02-21T18:46:19.914Z,10.85
2023-02-21T18:48:48.519Z,10.60
2023-02-21T18:51:16.871Z,11.43
2023-02-21T18:53:45.504Z,8.80
2023-02-21T18:56:14.222Z,7.57
2023-02-21T18:58:41.357Z,9.77
2023-02-21T19:01:10.200Z,9.25
2023-02-21T19:03:38.940Z,10.57
2023-02-21T19:06:07.956Z,11.80
2023-02-21T19:08:34.977Z,13.52
2023-02-21T19:11:02.025Z,15.00
2023-02-21T19:13:29.170Z,14.45
2023-02-21T19:15:56.273Z,12.90
2023-02-21T19:18:23.398Z,14.40
2023-02-21T19:20:50.601Z,11.15
2023-02-21T19:23:17.981Z,14.35
2023-02-21T19:25:45.179Z,10.55
2023-02-21T19:28:12.248Z,8.80
2023-02-21T19:30:39.330Z,8.80
2023-02-21T19:33:07.125Z,6.07
2023-02-21T19:35:34.734Z,8.95
2023-02-21T19:38:05.964Z,6.18
2023-02-21T19:40:33.168Z,8.90
2023-02-21T19:43:00.320Z,8.68
2023-02-21T19:45:28.637Z,14.18
2023-02-21T19:47:55.717Z,6.95
2023-02-21T19:50:22.712Z,7.35
2023-02-21T19:52:54.964Z,6.15
2023-02-21T19:55:22.450Z,7.35
2023-02-21T19:57:49.452Z,9.10
2023-02-21T20:00:16.913Z,8.38
2023-02-21T20:02:46.713Z,13.93
2023-02-21T20:05:14.305Z,16.08
2023-02-21T20:07:41.453Z,16.50
2023-02-21T20:10:09.241Z,16.23
2023-02-21T20:12:36.279Z,12.52
2023-02-21T20:15:04.074Z,12.30
2023-02-21T20:17:31.622Z,12.45
2023-02-21T20:19:58.713Z,10.98
2023-02-21T20:22:31.276Z,11.32
2023-02-21T20:24:58.746Z,9.68
2023-02-21T20:27:25.762Z,12.85
2023-02-21T20:29:52.755Z,12.15
2023-02-21T20:32:19.793Z,12.25
2023-02-21T20:34:46.783Z,12.10
2023-02-21T20:37:15.530Z,10.63
2023-02-21T20:39:42.575Z,12.00
2023-02-21T20:42:09.646Z,10.82
2023-02-21T20:44:41.415Z,10.55
2023-02-21T20:47:10.094Z,10.48
2023-02-21T20:49:37.576Z,13.18
2023-02-21T20:52:04.668Z,11.90
2023-02-21T20:54:31.669Z,11.00
2023-02-21T20:56:58.733Z,12.13
2023-02-21T20:59:27.566Z,13.48
2023-02-21T21:01:54.628Z,13.23
2023-02-21T21:04:27.030Z,12.07
2023-02-21T21:06:59.955Z,12.23
2023-02-21T21:09:34.425Z,13.30
2023-02-21T21:12:02.686Z,12.65
2023-02-21T21:14:35.617Z,12.80
2023-02-21T21:17:03.328Z,13.35
2023-02-21T21:19:37.044Z,15.43
2023-02-21T21:22:05.843Z,12.07
2023-02-21T21:24:32.937Z,10.25
2023-02-21T21:27:06.404Z,10.13
2023-02-21T21:29:36.695Z,10.90
2023-02-21T21:32:05.665Z,9.75
2023-02-21T21:34:33.513Z,10.38
2023-02-21T21:37:01.907Z,11.40
2023-02-21T21:39:29.058Z,9.93
2023-02-21T21:41:58.826Z,8.50
2023-02-21T21:44:26.678Z,9.13
2023-02-21T21:46:53.917Z,10.10
2023-02-21T21:49:22.262Z,10.80
2023-02-21T21:51:49.545Z,8.75
2023-02-21T21:54:20.699Z,8.98
2023-02-21T21:59:18.873Z,10.02
2023-02-21T22:01:49.946Z,9.50
2023-02-21T22:06:47.045Z,6.35
2023-02-21T22:09:17.368Z,7.65
2023-02-21T22:11:45.647Z,7.45
2023-02-21T22:14:13.387Z,6.95
2023-02-21T22:16:41.580Z,8.85
2023-02-21T22:19:08.660Z,10.73
2023-02-21T22:21:36.234Z,9.85
2023-02-21T22:24:04.017Z,8.18
2023-02-21T22:26:31.259Z,6.60
2023-02-21T22:28:58.293Z,6.22
2023-02-21T22:31:26.114Z,6.60
2023-02-21T22:33:54.072Z,5.93
2023-02-21T22:36:21.123Z,6.70
2023-02-21T22:38:48.743Z,7.10
2023-02-21T22:41:20.894Z,7.10
2023-02-21T22:43:50.648Z,10.88
2023-02-21T22:46:18.222Z,7.47
2023-02-21T22:48:45.322Z,10.93
2023-02-21T22:51:12.993Z,12.80
2023-02-21T22:53:41.668Z,8.70
2023-02-21T22:56:10.239Z,9.23
2023-02-21T22:58:37.362Z,9.70
2023-02-21T23:01:08.116Z,8.43
2023-02-21T23:03:35.661Z,9.90
2023-02-21T23:06:02.669Z,6.43
2023-02-21T23:08:29.749Z,9.18
2023-02-21T23:10:56.739Z,8.68
2023-02-21T23:13:24.285Z,8.57
2023-02-21T23:15:51.562Z,8.20
2023-02-21T23:18:21.785Z,8.52
2023-02-21T23:20:56.119Z,8.73
2023-02-21T23:23:27.483Z,8.23
2023-02-21T23:25:56.561Z,8.82
2023-02-21T23:28:23.604Z,7.75
2023-02-21T23:30:50.687Z,6.03
2023-02-21T23:33:23.043Z,6.07
2023-02-21T23:35:51.168Z,6.82
2023-02-21T23:38:22.182Z,7.00
2023-02-21T23:40:56.345Z,6.22
2023-02-21T23:43:25.316Z,6.00
2023-02-21T23:45:52.903Z,7.38
2023-02-21T23:48:19.916Z,6.35
2023-02-21T23:50:47.335Z,7.47
2023-02-21T23:53:19.155Z,7.15
2023-02-21T23:55:46.725Z,6.55
2023-02-21T23:58:15.609Z,9.82
